createdAt,value
2022-12-31T07:53:05.395Z,1.40
2022-12-31T07:55:32.516Z,3.67
2022-12-31T07:58:04.312Z,2.22
2022-12-31T08:00:31.428Z,3.38
2022-12-31T08:06:46.334Z,2.78
2022-12-31T08:09:16.130Z,1.73
2022-12-31T08:11:45.972Z,2.85
2022-12-31T08:14:13.181Z,2.53
2022-12-31T08:16:40.391Z,5.30
2022-12-31T08:19:07.760Z,2.83
2022-12-31T08:21:44.637Z,2.25
2022-12-31T08:24:11.700Z,2.25
2022-12-31T08:26:41.844Z,1.33
2022-12-31T08:29:12.076Z,5.70
2022-12-31T08:31:43.201Z,2.85
2022-12-31T08:34:31.230Z,2.33
2022-12-31T08:37:09.465Z,4.95
2022-12-31T08:39:36.503Z,4.63
2022-12-31T08:42:04.377Z,3.20
2022-12-31T08:44:40.262Z,2.53
2022-12-31T08:47:13.373Z,2.70
2022-12-31T08:49:40.755Z,3.90
2022-12-31T08:52:11.094Z,3.15
2022-12-31T08:57:08.454Z,3.75
2022-12-31T09:02:08.670Z,3.15
2022-12-31T09:04:54.521Z,3.05
2022-12-31T09:07:28.704Z,2.30
2022-12-31T09:10:16.054Z,2.67
2022-12-31T09:12:46.983Z,4.85
2022-12-31T09:15:32.855Z,2.78
2022-12-31T09:17:59.994Z,4.65
2022-12-31T09:20:41.649Z,10.65
2022-12-31T09:23:10.280Z,1.63
2022-12-31T09:25:38.802Z,3.63
2022-12-31T09:28:23.969Z,4.05
2022-12-31T09:30:51.937Z,1.63
2022-12-31T09:33:37.845Z,1.88
2022-12-31T09:36:06.522Z,4.93
2022-12-31T09:38:52.293Z,3.20
2022-12-31T09:41:55.003Z,9.05
2022-12-31T09:44:30.603Z,3.30
2022-12-31T09:47:03.831Z,4.78
2022-12-31T09:49:33.796Z,3.13
2022-12-31T09:52:18.978Z,2.53
2022-12-31T09:54:49.158Z,1.98
2022-12-31T09:57:26.151Z,2.45
2022-12-31T09:59:55.306Z,2.88
2022-12-31T10:02:36.832Z,3.58
2022-12-31T10:05:03.984Z,2.92
2022-12-31T10:07:33.876Z,4.30
2022-12-31T10:10:19.418Z,2.33
2022-12-31T10:13:05.128Z,3.95
2022-12-31T10:15:50.967Z,4.75
2022-12-31T10:18:36.685Z,5.43
2022-12-31T10:21:12.835Z,3.53
2022-12-31T10:23:58.086Z,2.17
2022-12-31T10:26:25.181Z,4.85
2022-12-31T10:29:10.723Z,4.38
2022-12-31T10:31:38.282Z,2.97
2022-12-31T10:34:05.277Z,2.38
2022-12-31T10:36:33.080Z,4.30
2022-12-31T10:39:10.472Z,2.08
2022-12-31T10:44:10.668Z,4.72
2022-12-31T10:46:56.328Z,2.95
2022-12-31T10:49:46.444Z,6.22
2022-12-31T10:52:41.572Z,3.53
2022-12-31T10:55:09.024Z,2.38
2022-12-31T10:57:51.361Z,3.08
2022-12-31T11:00:21.926Z,2.33
2022-12-31T11:03:01.230Z,3.40
2022-12-31T11:05:40.610Z,1.58
2022-12-31T11:08:26.309Z,2.95
2022-12-31T11:11:02.871Z,5.95
2022-12-31T11:13:32.927Z,1.98
2022-12-31T11:16:18.174Z,2.28
2022-12-31T11:18:51.355Z,2.78
2022-12-31T11:21:39.464Z,4.20
2022-12-31T11:24:08.347Z,3.15
2022-12-31T11:26:39.670Z,3.28
2022-12-31T11:29:14.191Z,3.65
2022-12-31T11:31:43.077Z,4.95
2022-12-31T11:34:16.311Z,4.53
2022-12-31T11:37:01.854Z,6.82
2022-12-31T11:39:31.302Z,4.68
2022-12-31T11:42:01.701Z,4.05
2022-12-31T11:44:35.188Z,5.50
2022-12-31T11:47:09.374Z,4.82
2022-12-31T11:49:39.520Z,4.85
2022-12-31T11:52:06.571Z,4.57
2022-12-31T11:54:54.194Z,4.38
2022-12-31T11:57:30.522Z,4.20
2022-12-31T11:59:58.591Z,3.75
2022-12-31T12:02:29.746Z,2.25
2022-12-31T12:04:58.010Z,4.05
2022-12-31T12:07:25.112Z,3.85
2022-12-31T12:09:53.204Z,4.75
2022-12-31T12:12:20.320Z,3.85
2022-12-31T12:14:50.690Z,2.75
2022-12-31T12:19:45.660Z,6.25
2022-12-31T12:22:13.214Z,6.30
2022-12-31T12:24:40.314Z,5.13
2022-12-31T12:27:19.153Z,6.30
2022-12-31T12:29:47.362Z,4.35
2022-12-31T12:32:15.957Z,1.95
2022-12-31T12:34:49.132Z,3.88
2022-12-31T12:37:27.089Z,2.53
2022-12-31T12:39:58.027Z,7.40
2022-12-31T12:42:25.133Z,2.25
2022-12-31T12:45:01.808Z,5.30
2022-12-31T12:47:28.879Z,4.15
2022-12-31T12:49:56.025Z,7.25
2022-12-31T12:52:26.227Z,4.07
2022-12-31T12:55:15.573Z,7.95
2022-12-31T12:57:58.438Z,5.10
2022-12-31T13:00:29.631Z,3.17
2022-12-31T13:03:15.495Z,3.92
2022-12-31T13:06:01.278Z,11.48
2022-12-31T13:08:47.173Z,7.90
2022-12-31T13:11:15.823Z,5.57
2022-12-31T13:13:54.863Z,3.15
2022-12-31T13:16:29.010Z,3.28
2022-12-31T13:19:14.911Z,3.15
2022-12-31T13:21:46.593Z,2.33
2022-12-31T13:24:19.707Z,3.65
2022-12-31T13:26:58.461Z,4.13
2022-12-31T13:29:25.936Z,6.85
2022-12-31T13:31:53.072Z,5.43
2022-12-31T13:34:22.150Z,4.47
2022-12-31T13:36:49.415Z,4.95
2022-12-31T13:39:17.597Z,3.72
2022-12-31T13:41:50.397Z,3.92
2022-12-31T13:44:19.206Z,6.70
2022-12-31T13:46:46.342Z,3.17
2022-12-31T13:49:17.767Z,2.67
2022-12-31T13:51:48.972Z,6.38
2022-12-31T13:54:15.991Z,6.75
2022-12-31T13:56:43.260Z,6.00
2022-12-31T13:59:29.032Z,5.88
2022-12-31T14:02:09.665Z,4.72
2022-12-31T14:04:44.021Z,3.42
2022-12-31T14:07:12.828Z,4.80
2022-12-31T14:09:40.133Z,8.25
2022-12-31T14:12:30.361Z,5.03
2022-12-31T14:15:06.658Z,3.38
2022-12-31T14:17:45.586Z,4.38
2022-12-31T14:20:18.425Z,8.27
2022-12-31T14:23:07.253Z,2.13
2022-12-31T14:25:42.069Z,5.18
2022-12-31T14:28:10.720Z,3.53
2022-12-31T14:30:38.229Z,3.35
2022-12-31T14:33:17.568Z,3.33
2022-12-31T14:35:51.366Z,3.95
2022-12-31T14:38:30.300Z,2.83
2022-12-31T14:41:16.180Z,5.10
2022-12-31T14:43:59.897Z,5.28
2022-12-31T14:46:45.286Z,3.42
2022-12-31T14:49:12.343Z,4.20
2022-12-31T14:51:39.378Z,5.65
2022-12-31T14:54:06.422Z,5.50
2022-12-31T14:56:39.162Z,2.92
2022-12-31T14:59:20.177Z,6.20
2022-12-31T15:01:47.277Z,4.80
2022-12-31T15:04:15.118Z,6.57
2022-12-31T15:07:12.095Z,4.15
2022-12-31T15:09:45.493Z,4.45
2022-12-31T15:12:24.272Z,5.50
2022-12-31T15:14:51.332Z,5.03
2022-12-31T15:17:18.386Z,3.08
2022-12-31T15:19:48.256Z,5.75
2022-12-31T15:22:15.331Z,1.38
2022-12-31T15:24:46.170Z,3.35
2022-12-31T15:27:42.716Z,2.70
2022-12-31T15:30:27.145Z,5.80
2022-12-31T15:32:54.165Z,4.97
2022-12-31T15:35:21.174Z,3.65
2022-12-31T15:38:00.651Z,4.18
2022-12-31T15:40:29.112Z,3.72
2022-12-31T15:43:00.851Z,5.10
2022-12-31T15:45:34.878Z,5.25
2022-12-31T15:48:02.805Z,4.15
2022-12-31T15:50:29.856Z,4.10
2022-12-31T15:53:00.817Z,4.72
2022-12-31T15:55:30.160Z,6.45
2022-12-31T15:58:00.160Z,4.40
2022-12-31T16:00:27.219Z,4.57
2022-12-31T16:02:55.233Z,6.07
2022-12-31T16:05:26.245Z,2.92
2022-12-31T16:07:54.198Z,3.78
2022-12-31T16:10:23.728Z,4.38
2022-12-31T16:12:50.774Z,8.27
2022-12-31T16:15:21.674Z,4.05
2022-12-31T16:17:57.712Z,2.72
2022-12-31T16:20:25.811Z,3.42
2022-12-31T16:22:56.058Z,65.43
2022-12-31T16:25:31.972Z,2.58
2022-12-31T16:27:59.587Z,5.55
2022-12-31T16:30:27.569Z,3.38
2022-12-31T16:32:54.904Z,5.03
2022-12-31T16:35:23.841Z,3.08
2022-12-31T16:38:03.648Z,1.77
2022-12-31T16:40:30.759Z,3.70
2022-12-31T16:42:57.873Z,12.05
2022-12-31T16:45:34.759Z,3.92
2022-12-31T16:48:03.319Z,3.88
2022-12-31T16:50:30.578Z,3.50
2022-12-31T16:53:03.920Z,3.15
2022-12-31T16:55:31.168Z,5.28
2022-12-31T16:58:00.174Z,5.15
2022-12-31T17:00:27.260Z,6.65
2022-12-31T17:03:15.547Z,3.50
2022-12-31T17:05:54.856Z,5.40
2022-12-31T17:08:26.153Z,2.95
2022-12-31T17:10:53.277Z,3.60
2022-12-31T17:13:27.845Z,3.63
2022-12-31T17:15:56.179Z,2.53
2022-12-31T17:18:23.911Z,5.28
2022-12-31T17:20:51.492Z,3.15
2022-12-31T17:23:28.827Z,4.65
2022-12-31T17:26:08.337Z,3.15
2022-12-31T17:28:40.862Z,2.83
2022-12-31T17:31:34.407Z,4.53
2022-12-31T17:34:18.610Z,1.77
2022-12-31T17:36:59.065Z,3.90
2022-12-31T17:41:53.775Z,2.33
2022-12-31T17:44:21.235Z,5.18
2022-12-31T17:46:49.031Z,2.50
2022-12-31T17:49:16.113Z,7.40
2022-12-31T17:51:47.587Z,6.15
2022-12-31T17:56:02.070Z,3.78
2022-12-31T17:58:32.222Z,3.22
2022-12-31T18:00:59.525Z,4.57
2022-12-31T18:03:26.762Z,3.38
2022-12-31T18:05:53.865Z,1.52
2022-12-31T18:08:20.953Z,4.30
2022-12-31T18:10:48.057Z,4.82
2022-12-31T18:13:17.333Z,36.08
2022-12-31T18:15:44.706Z,9.10
2022-12-31T18:18:25.285Z,13.18
2022-12-31T18:20:56.940Z,4.72
2022-12-31T18:23:51.997Z,4.05
2022-12-31T18:26:20.205Z,4.80
2022-12-31T18:28:47.323Z,5.00
2022-12-31T18:31:18.490Z,5.18
2022-12-31T18:33:46.903Z,5.88
2022-12-31T18:36:14.376Z,3.35
2022-12-31T18:38:41.659Z,4.00
2022-12-31T18:41:08.783Z,5.78
2022-12-31T18:43:35.800Z,6.75
2022-12-31T18:46:02.969Z,8.27
2022-12-31T18:48:30.105Z,9.73
2022-12-31T18:50:57.196Z,4.60
2022-12-31T18:53:25.478Z,9.40
2022-12-31T18:55:56.271Z,5.65
2022-12-31T18:58:23.468Z,8.38
2022-12-31T19:00:50.557Z,8.07
2022-12-31T19:03:20.451Z,7.07
2022-12-31T19:05:49.799Z,4.93
2022-12-31T19:08:20.563Z,6.18
2022-12-31T19:10:47.998Z,8.00
2022-12-31T19:13:15.482Z,5.57
2022-12-31T19:15:46.535Z,66.25
2022-12-31T19:18:13.605Z,7.40
2022-12-31T19:20:41.391Z,5.75
2022-12-31T19:23:18.329Z,10.55
2022-12-31T19:25:45.706Z,5.82
2022-12-31T19:28:17.467Z,4.47
2022-12-31T19:30:44.760Z,5.22
2022-12-31T19:33:12.080Z,6.53
2022-12-31T19:35:39.887Z,7.72
2022-12-31T19:38:07.260Z,5.93
2022-12-31T19:40:34.302Z,8.32
2022-12-31T19:43:01.398Z,6.28
2022-12-31T19:45:28.865Z,5.85
2022-12-31T19:47:56.452Z,6.15
2022-12-31T19:50:24.470Z,7.15
2022-12-31T19:52:52.173Z,4.45
2022-12-31T19:55:19.764Z,5.55
2022-12-31T19:57:47.211Z,6.75
2022-12-31T20:00:16.375Z,6.50
2022-12-31T20:02:43.936Z,3.55
2022-12-31T20:05:11.514Z,4.28
2022-12-31T20:07:38.618Z,10.43
2022-12-31T20:10:06.273Z,12.68
2022-12-31T20:12:34.757Z,5.72
2022-12-31T20:15:05.105Z,6.07
2022-12-31T20:17:32.272Z,4.45
2022-12-31T20:19:59.611Z,6.38
2022-12-31T20:22:26.721Z,8.05
2022-12-31T20:24:53.768Z,3.92
2022-12-31T20:27:20.802Z,6.57
2022-12-31T20:29:47.903Z,10.60
2022-12-31T20:32:15.033Z,6.57
2022-12-31T20:34:42.139Z,5.93
2022-12-31T20:37:09.152Z,3.00
2022-12-31T20:39:36.309Z,7.90
2022-12-31T20:42:03.365Z,5.18
2022-12-31T20:44:30.407Z,5.15
2022-12-31T20:46:57.556Z,5.65
2022-12-31T20:49:44.836Z,25.75
2022-12-31T20:52:11.699Z,9.30
2022-12-31T20:54:38.713Z,21.60
2022-12-31T20:57:05.779Z,31.45
2022-12-31T20:59:32.862Z,6.32
2022-12-31T21:04:47.447Z,20.58
2022-12-31T21:07:14.618Z,7.28
2022-12-31T21:09:41.690Z,5.93
2022-12-31T21:12:28.341Z,6.28
2022-12-31T21:14:55.492Z,11.88
2022-12-31T21:17:22.578Z,3.85
2022-12-31T21:19:49.620Z,4.57
2022-12-31T21:22:16.737Z,5.90
2022-12-31T21:24:43.777Z,5.72
2022-12-31T21:27:10.886Z,5.57
2022-12-31T21:29:55.783Z,4.75
2022-12-31T21:32:25.038Z,4.45
2022-12-31T21:35:31.056Z,5.68
2022-12-31T21:37:58.615Z,7.82
2022-12-31T21:40:26.167Z,3.83
2022-12-31T21:42:53.204Z,4.85
2022-12-31T21:45:20.270Z,5.55
2022-12-31T21:48:06.145Z,6.40
2022-12-31T21:50:33.517Z,8.23
2022-12-31T21:53:00.636Z,9.40
2022-12-31T21:55:46.261Z,6.90
2022-12-31T21:58:30.675Z,5.82
2022-12-31T22:01:16.554Z,8.13
2022-12-31T22:03:43.912Z,8.30
2022-12-31T22:06:12.940Z,6.38
2022-12-31T22:08:40.526Z,5.68
2022-12-31T22:11:07.665Z,4.75
2022-12-31T22:13:34.837Z,4.68
2022-12-31T22:16:05.428Z,8.73
2022-12-31T22:18:35.030Z,5.30
2022-12-31T22:21:15.505Z,4.60
2022-12-31T22:23:45.160Z,4.70
2022-12-31T22:26:12.812Z,4.63
2022-12-31T22:28:40.519Z,5.38
2022-12-31T22:31:13.603Z,7.03
2022-12-31T22:33:40.713Z,5.63
2022-12-31T22:36:08.699Z,6.07
2022-12-31T22:38:35.826Z,7.53
2022-12-31T22:41:06.663Z,4.00
2022-12-31T22:43:34.365Z,6.03
2022-12-31T22:46:06.464Z,4.60
2022-12-31T22:48:33.679Z,4.07
2022-12-31T22:51:00.770Z,8.70
2022-12-31T22:53:31.010Z,8.68
2022-12-31T22:55:58.149Z,9.10
2022-12-31T22:58:25.317Z,7.70
2022-12-31T23:00:52.449Z,6.20
2022-12-31T23:03:19.630Z,59.17
2022-12-31T23:05:48.007Z,191.52
2022-12-31T23:08:22.327Z,34.40
2022-12-31T23:10:59.774Z,208.88
2022-12-31T23:13:50.213Z,115.10
2022-12-31T23:16:36.949Z,215.73
2022-12-31T23:19:22.706Z,84.78
2022-12-31T23:22:08.615Z,113.97
2022-12-31T23:24:35.713Z,44.25
2022-12-31T23:27:02.931Z,37.22
2022-12-31T23:29:30.056Z,28.85
2022-12-31T23:31:57.118Z,124.60
2022-12-31T23:34:24.257Z,169.32
2022-12-31T23:36:51.306Z,93.22
2022-12-31T23:39:18.428Z,91.40
2022-12-31T23:41:45.456Z,57.22
2022-12-31T23:44:12.513Z,43.50
2022-12-31T23:46:39.992Z,45.42
2022-12-31T23:49:07.162Z,32.17
2022-12-31T23:51:36.359Z,93.68
2022-12-31T23:54:04.123Z,59.38
2022-12-31T23:56:31.249Z,103.00
2022-12-31T23:58:58.593Z,94.85
